Archival Weather

Chicago O'Hare International

Chicago, Illinois (KORD)

Report from: Wednesday, December 28, 2022 11:51 AM CST
Current time: Friday, June 14, 2024 6:44 AM CDT

Current weather – Weather history – Daily summaries
Weather forecast

Temperature4.4°C (39.9°F)
Wind chill-0.5°C (31.1°F)
Dew point-3.3°C (26.1°F)
Winds 15 kts (7.7 m/s, 17.3 mph) South (190°)
Wind gusts 23 kts (11.8 m/s, 26.5 mph)
Visibility10 mi. (16.1 km)
Clouds Ceiling: Broken clouds 25,000 ft. (7,620 m)
Altimeter29.78 in.Hg (1008 mB)
Relative humidity57 %
Density altitude-1,069 ft. (-326 m)
Sea-level pressure100.9 kPa (1009 mB, 29.80 in.Hg)
Max temp last 6 hours4.4°C (39.9°F)
Min temp last 6 hours-1.7°C (28.9°F)
Snow depth1.00 in. (25 mm)
Remarks Automated weather observing station with precipitation discriminator
Pressure falling more quickly
Flight conditions Visual Meteorological Conditions
Raw dataKORD 281751Z 19015G23KT 10SM BKN250 04/M03 A2978 RMK AO2 SLP092 4/001 T00441033 10044 21017 58014
An error has occurred. This application may no longer respond until reloaded. Reload 🗙